Time;durP1;ratioP1;P1;durP2;ratioP2;P2;SDS_P1;SDS_P2;PMS_P1;PMS_P2;Temp;Humidity;BMP_temperature;BMP_pressure;BME280_temperature;BME280_humidity;BME280_pressure;Samples;Min_cycle;Max_cycle;Signal;HPM_P1;HPM_P2
2020/12/11 00:01:34;;;;;;;22.50;18.53;;;5.30;99.90;;;;;;5074305;28;20404;-57
2020/12/11 00:04:02;;;;;;;17.33;15.43;;;5.20;99.90;;;;;;5073072;28;20404;-57
2020/12/11 00:06:28;;;;;;;20.77;18.03;;;5.10;99.90;;;;;;5077030;28;20447;-57
2020/12/11 00:08:53;;;;;;;21.63;18.60;;;5.10;99.90;;;;;;5086560;28;20806;-57
2020/12/11 00:11:26;;;;;;;21.40;18.57;;;5.10;99.90;;;;;;5095150;28;20298;-57
2020/12/11 00:13:52;;;;;;;19.70;16.57;;;5.10;99.90;;;;;;5079337;28;20579;-57
2020/12/11 00:16:17;;;;;;;20.77;17.70;;;4.90;99.90;;;;;;5074515;28;20425;-56
2020/12/11 00:18:43;;;;;;;21.67;18.23;;;4.80;99.90;;;;;;5051769;28;654161;-56
2020/12/11 00:21:08;;;;;;;21.90;17.83;;;4.90;99.90;;;;;;5075233;28;20166;-55
2020/12/11 00:23:34;;;;;;;21.23;17.63;;;4.90;99.90;;;;;;5075464;28;20205;-54
2020/12/11 00:25:59;;;;;;;23.00;19.27;;;4.80;99.90;;;;;;5091943;28;20173;-53
2020/12/11 00:28:30;;;;;;;19.27;16.53;;;4.80;99.90;;;;;;5094728;28;20196;-54
2020/12/11 00:30:56;;;;;;;17.67;15.83;;;4.70;99.90;;;;;;5095384;28;20178;-54
2020/12/11 00:33:22;;;;;;;18.63;15.97;;;4.70;99.90;;;;;;5095485;28;20503;-56
2020/12/11 00:35:48;;;;;;;18.50;16.60;;;4.80;99.90;;;;;;5095083;28;20422;-58
2020/12/11 00:38:14;;;;;;;18.60;16.70;;;4.80;99.90;;;;;;5095642;28;20419;-54
2020/12/11 00:40:40;;;;;;;18.27;16.10;;;4.80;99.90;;;;;;5096705;28;20437;-54
2020/12/11 00:43:05;;;;;;;16.67;14.30;;;4.90;99.90;;;;;;5085416;28;20669;-54
2020/12/11 00:45:32;;;;;;;18.30;16.40;;;5.10;99.90;;;;;;5074700;28;20548;-54
2020/12/11 00:47:58;;;;;;;20.17;18.03;;;5.10;99.90;;;;;;5074552;28;20190;-57
2020/12/11 00:50:23;;;;;;;19.57;17.10;;;5.20;99.90;;;;;;5073976;28;20501;-57
2020/12/11 00:52:49;;;;;;;16.70;14.97;;;5.10;99.90;;;;;;5074206;28;20164;-55
2020/12/11 00:55:21;;;;;;;19.00;16.07;;;5.10;99.90;;;;;;5074732;28;20167;-56
2020/12/11 00:57:49;;;;;;;17.30;15.40;;;5.20;99.90;;;;;;5074461;28;20193;-57
2020/12/11 01:00:16;;;;;;;18.50;15.57;;;5.30;99.90;;;;;;5074516;28;20400;-54
2020/12/11 01:02:42;;;;;;;17.60;15.80;;;5.10;99.90;;;;;;5091102;28;20420;-58
2020/12/11 01:05:08;;;;;;;17.53;15.60;;;5.00;99.90;;;;;;5094084;28;20774;-56
2020/12/11 01:07:33;;;;;;;16.73;15.00;;;4.90;99.90;;;;;;5094763;28;20239;-55
2020/12/11 01:09:59;;;;;;;19.20;17.20;;;4.80;99.90;;;;;;5076282;28;20235;-54
2020/12/11 01:12:25;;;;;;;16.87;14.83;;;4.90;99.90;;;;;;5074461;28;20184;-55
2020/12/11 01:14:51;;;;;;;16.50;14.63;;;5.00;99.90;;;;;;5074504;28;20260;-52
2020/12/11 01:17:17;;;;;;;16.40;14.60;;;4.90;99.90;;;;;;5073999;28;20503;-54
2020/12/11 01:19:43;;;;;;;17.40;14.83;;;4.90;99.90;;;;;;5074363;28;20717;-54
2020/12/11 01:22:08;;;;;;;16.60;14.80;;;4.80;99.90;;;;;;5073865;28;20227;-57
2020/12/11 01:24:34;;;;;;;14.07;12.53;;;4.80;99.90;;;;;;5073294;28;20400;-54
2020/12/11 01:27:00;;;;;;;15.77;14.17;;;4.80;99.90;;;;;;5073750;28;20420;-56
2020/12/11 01:29:25;;;;;;;16.30;14.60;;;4.90;99.90;;;;;;5073723;28;20684;-57
2020/12/11 01:31:58;;;;;;;17.67;14.90;;;4.90;99.90;;;;;;5074024;28;20166;-57
2020/12/11 01:34:24;;;;;;;16.70;14.90;;;4.90;99.90;;;;;;5073770;28;20736;-54
2020/12/11 01:36:49;;;;;;;14.87;13.37;;;4.90;99.90;;;;;;5074029;28;20477;-54
2020/12/11 01:39:15;;;;;;;15.97;14.37;;;4.70;99.90;;;;;;5073121;28;20257;-53
2020/12/11 01:41:40;;;;;;;14.97;13.47;;;4.60;99.90;;;;;;5073568;28;20166;-56
2020/12/11 01:44:10;;;;;;;15.83;13.47;;;4.60;99.90;;;;;;5073616;28;20166;-57
2020/12/11 01:46:38;;;;;;;15.47;13.80;;;4.50;99.90;;;;;;5073487;28;20688;-55
2020/12/11 01:49:05;;;;;;;15.30;13.70;;;4.40;99.90;;;;;;5073059;28;20568;-56
2020/12/11 01:51:32;;;;;;;15.30;13.70;;;4.10;99.90;;;;;;5073842;28;20396;-54
2020/12/11 01:53:59;;;;;;;15.73;14.10;;;3.90;99.90;;;;;;5073217;28;20419;-57
2020/12/11 01:56:29;;;;;;;13.20;11.90;;;3.90;99.90;;;;;;5073451;28;20424;-55
2020/12/11 01:59:01;;;;;;;16.07;14.53;;;4.00;99.90;;;;;;5073705;28;20884;-56
2020/12/11 02:01:28;;;;;;;16.73;15.13;;;4.10;99.90;;;;;;5081406;28;20759;-58
2020/12/11 02:03:54;;;;;;;12.47;11.17;;;4.10;99.90;;;;;;5093914;28;20403;-58
2020/12/11 02:06:20;;;;;;;14.50;12.97;;;4.00;99.90;;;;;;5093515;28;20425;-56
2020/12/11 02:08:46;;;;;;;16.33;14.63;;;4.00;99.90;;;;;;5086817;28;20565;-53
2020/12/11 02:11:21;;;;;;;15.47;13.43;;;4.00;99.90;;;;;;5073502;28;20205;-57
2020/12/11 02:13:47;;;;;;;15.93;14.23;;;4.10;99.90;;;;;;5073460;28;20998;-56
2020/12/11 02:16:13;;;;;;;15.07;13.47;;;3.90;99.90;;;;;;5073244;28;20512;-55
2020/12/11 02:18:40;;;;;;;17.67;14.20;;;3.90;99.90;;;;;;5072853;28;20176;-60
2020/12/11 02:21:07;;;;;;;17.40;14.60;;;3.80;99.90;;;;;;5072769;28;20222;-57
2020/12/11 02:23:32;;;;;;;14.77;13.27;;;3.80;99.90;;;;;;5073295;28;20399;-59
2020/12/11 02:25:58;;;;;;;14.20;12.63;;;3.70;99.90;;;;;;5073164;28;20458;-58
2020/12/11 02:28:30;;;;;;;16.30;13.87;;;3.70;99.90;;;;;;5073224;28;20629;-56
2020/12/11 02:30:57;;;;;;;17.43;15.63;;;3.60;99.90;;;;;;5073519;28;20158;-58
2020/12/11 02:33:22;;;;;;;17.70;15.27;;;3.60;99.90;;;;;;5073594;28;20392;-57
2020/12/11 02:35:48;;;;;;;17.23;15.43;;;3.40;99.90;;;;;;5073356;28;20755;-59
2020/12/11 02:38:14;;;;;;;17.53;15.17;;;3.40;99.90;;;;;;5072597;28;20215;-55
2020/12/11 02:40:50;;;;;;;14.93;12.80;;;3.40;99.90;;;;;;5073145;28;20213;-53
2020/12/11 02:43:16;;;;;;;18.17;16.23;;;3.40;99.90;;;;;;5073516;28;20397;-59
2020/12/11 02:45:45;;;;;;;15.70;13.50;;;3.40;99.90;;;;;;5088692;28;20414;-56
2020/12/11 02:48:11;;;;;;;15.40;13.77;;;3.30;99.90;;;;;;5093123;28;20844;-57
2020/12/11 02:50:37;;;;;;;15.93;14.23;;;3.40;99.90;;;;;;5093227;28;20519;-53
2020/12/11 02:53:02;;;;;;;15.60;14.00;;;3.50;99.90;;;;;;5088745;28;20427;-55
2020/12/11 02:55:28;;;;;;;16.50;14.20;;;3.60;99.90;;;;;;5072729;28;20162;-57
2020/12/11 02:57:54;;;;;;;18.90;15.10;;;3.50;99.90;;;;;;5072989;28;20185;-59
2020/12/11 03:00:19;;;;;;;18.90;15.43;;;3.50;99.90;;;;;;5075969;28;20172;-55
2020/12/11 03:02:45;;;;;;;17.77;15.03;;;3.50;99.90;;;;;;5091170;28;20185;-55
2020/12/11 03:05:11;;;;;;;18.07;15.30;;;3.40;99.90;;;;;;5092976;28;20176;-57
2020/12/11 03:07:37;;;;;;;17.57;15.30;;;3.50;99.90;;;;;;5092480;28;20297;-56
2020/12/11 03:10:03;;;;;;;19.13;16.20;;;3.30;99.90;;;;;;5093057;28;20989;-57
2020/12/11 03:12:28;;;;;;;20.73;17.93;;;3.30;99.90;;;;;;5093477;28;20216;-56
2020/12/11 03:14:54;;;;;;;21.20;18.77;;;3.20;99.90;;;;;;5096999;28;20484;-56
2020/12/11 03:17:19;;;;;;;20.60;17.30;;;3.20;99.90;;;;;;5097019;28;20660;-56
2020/12/11 03:19:45;;;;;;;20.17;17.13;;;3.20;99.90;;;;;;5097274;28;20207;-56
2020/12/11 03:22:10;;;;;;;20.90;17.57;;;3.20;99.90;;;;;;5096756;28;20537;-56
2020/12/11 03:24:36;;;;;;;20.43;17.70;;;3.30;99.90;;;;;;5079164;28;20511;-56
2020/12/11 03:27:01;;;;;;;20.27;17.57;;;3.40;99.90;;;;;;5076433;28;20596;-59
2020/12/11 03:29:27;;;;;;;21.37;17.40;;;3.50;99.90;;;;;;5076390;28;20200;-56
2020/12/11 03:31:52;;;;;;;17.20;14.80;;;3.60;99.90;;;;;;5076692;28;20164;-56
2020/12/11 03:34:18;;;;;;;18.60;16.60;;;3.70;99.90;;;;;;5076241;28;20166;-55
2020/12/11 03:36:44;;;;;;;18.17;15.93;;;3.70;99.90;;;;;;5076179;28;20552;-54
2020/12/11 03:39:09;;;;;;;19.93;17.73;;;3.70;99.90;;;;;;5076016;28;20170;-56
2020/12/11 03:41:35;;;;;;;17.90;16.00;;;3.60;99.90;;;;;;5076548;28;20173;-56
2020/12/11 03:44:00;;;;;;;18.23;16.20;;;3.60;99.90;;;;;;5076199;28;20672;-59
2020/12/11 03:46:26;;;;;;;19.50;16.30;;;3.60;99.90;;;;;;5076324;28;20331;-57
2020/12/11 03:48:52;;;;;;;18.27;15.93;;;3.60;99.90;;;;;;5076452;28;20196;-53
2020/12/11 03:51:21;;;;;;;18.97;16.60;;;3.50;99.90;;;;;;5076564;28;20170;-59
2020/12/11 03:53:47;;;;;;;18.73;16.77;;;3.50;99.90;;;;;;5080199;28;20250;-57
2020/12/11 03:56:17;;;;;;;20.60;15.93;;;3.40;99.90;;;;;;5096884;28;20423;-56
2020/12/11 03:58:44;;;;;;;19.23;15.60;;;3.30;99.90;;;;;;5097543;28;20407;-56
2020/12/11 04:01:13;;;;;;;20.97;16.93;;;3.30;99.90;;;;;;5097718;28;20441;-53
2020/12/11 04:03:40;;;;;;;22.10;17.93;;;3.30;99.90;;;;;;5095091;28;20497;-55
2020/12/11 04:06:14;;;;;;;19.07;16.63;;;3.20;99.90;;;;;;5097392;28;20478;-58
2020/12/11 04:08:40;;;;;;;20.67;16.60;;;3.10;99.90;;;;;;5101515;28;20393;-58
2020/12/11 04:11:06;;;;;;;23.40;18.10;;;3.10;99.90;;;;;;5100615;28;20844;-58
2020/12/11 04:13:32;;;;;;;21.10;17.23;;;3.00;99.90;;;;;;5098102;28;20163;-58
2020/12/11 04:15:58;;;;;;;18.90;15.93;;;3.10;99.90;;;;;;5100863;28;20411;-57
2020/12/11 04:18:23;;;;;;;21.07;16.90;;;3.10;99.90;;;;;;5096287;28;20192;-56
2020/12/11 04:20:49;;;;;;;22.50;17.70;;;3.20;99.90;;;;;;5095628;28;20184;-53
2020/12/11 04:23:15;;;;;;;20.43;16.80;;;3.10;99.90;;;;;;5097505;28;20178;-58
2020/12/11 04:25:40;;;;;;;25.77;19.50;;;3.20;99.90;;;;;;5103503;28;20251;-57
2020/12/11 04:28:06;;;;;;;24.73;18.53;;;3.20;99.90;;;;;;5101539;28;20462;-58
2020/12/11 04:30:31;;;;;;;20.80;16.53;;;3.30;99.90;;;;;;5100811;28;20253;-57
2020/12/11 04:32:57;;;;;;;20.80;17.17;;;3.30;99.90;;;;;;5100221;28;20180;-58
2020/12/11 04:35:22;;;;;;;23.50;18.73;;;3.30;99.90;;;;;;5102113;28;20200;-58
2020/12/11 04:37:48;;;;;;;20.70;17.73;;;3.30;99.90;;;;;;5098405;28;20189;-55
2020/12/11 04:40:18;;;;;;;20.63;16.70;;;3.40;99.90;;;;;;5095069;28;20633;-54
2020/12/11 04:42:45;;;;;;;21.27;17.23;;;3.40;99.90;;;;;;5095400;28;20180;-58
2020/12/11 04:45:11;;;;;;;26.77;20.17;;;3.40;99.90;;;;;;5076663;28;20469;-56
2020/12/11 04:47:41;;;;;;;23.73;19.23;;;3.30;99.90;;;;;;5084047;28;20436;-57
2020/12/11 04:50:07;;;;;;;22.23;18.90;;;3.40;99.90;;;;;;5094790;28;20455;-56
2020/12/11 04:52:35;;;;;;;21.60;18.47;;;3.30;99.90;;;;;;5092860;28;20495;-56
2020/12/11 04:55:02;;;;;;;20.60;16.90;;;3.20;99.90;;;;;;5089118;28;20414;-58
2020/12/11 04:57:31;;;;;;;26.13;20.30;;;3.10;99.90;;;;;;5095030;28;20425;-56
2020/12/11 04:59:57;;;;;;;22.83;18.37;;;3.00;99.90;;;;;;5095094;28;20973;-54
2020/12/11 05:02:26;;;;;;;22.83;17.93;;;3.10;99.90;;;;;;5093130;28;20516;-53
2020/12/11 05:04:57;;;;;;;28.67;21.27;;;3.00;99.90;;;;;;5093282;28;20185;-53
2020/12/11 05:07:23;;;;;;;21.30;17.97;;;2.90;99.90;;;;;;5093884;28;20470;-53
2020/12/11 05:09:57;;;;;;;25.33;18.17;;;2.90;99.90;;;;;;5094223;28;20481;-53
2020/12/11 05:12:23;;;;;;;25.10;19.20;;;2.80;99.90;;;;;;5094530;28;20172;-57
2020/12/11 05:14:58;;;;;;;22.57;17.93;;;2.70;99.90;;;;;;5094493;28;20489;-52
2020/12/11 05:17:32;;;;;;;25.23;19.20;;;2.70;99.90;;;;;;5094656;28;20578;-52
2020/12/11 05:19:59;;;;;;;27.07;21.77;;;2.70;99.90;;;;;;5094539;28;20437;-55
2020/12/11 05:22:29;;;;;;;24.93;19.27;;;2.70;99.90;;;;;;5094219;28;20409;-53
2020/12/11 05:24:58;;;;;;;27.77;19.50;;;2.60;99.90;;;;;;5074481;28;20804;-52
2020/12/11 05:27:30;;;;;;;24.77;18.63;;;2.60;99.90;;;;;;5074253;28;20430;-55
2020/12/11 05:29:57;;;;;;;22.73;17.47;;;2.60;99.90;;;;;;5073834;28;20477;-54
2020/12/11 05:32:39;;;;;;;26.17;19.63;;;2.50;99.90;;;;;;5074267;28;20414;-53
2020/12/11 05:35:07;;;;;;;22.90;18.40;;;2.60;99.90;;;;;;5073655;28;20405;-53
2020/12/11 05:38:04;;;;;;;29.23;19.67;;;2.50;99.90;;;;;;5073350;28;20424;-53
2020/12/11 05:40:41;;;;;;;27.97;20.17;;;2.40;99.90;;;;;;5074059;28;20463;-53
2020/12/11 05:43:23;;;;;;;25.10;19.97;;;2.50;99.90;;;;;;5074200;28;20380;-55
2020/12/11 05:45:51;;;;;;;28.97;19.90;;;2.40;99.90;;;;;;5074464;28;20410;-57
2020/12/11 05:48:18;;;;;;;28.83;20.37;;;2.40;99.90;;;;;;5074173;28;20418;-56
2020/12/11 05:50:44;;;;;;;27.87;19.50;;;2.50;99.90;;;;;;5074031;28;20450;-53
2020/12/11 05:53:10;;;;;;;26.47;20.13;;;2.40;99.90;;;;;;5079409;28;20774;-56
2020/12/11 05:55:35;;;;;;;24.57;18.17;;;2.30;99.90;;;;;;5092287;28;20226;-56
2020/12/11 05:58:01;;;;;;;25.57;18.87;;;2.40;99.90;;;;;;5092009;28;20430;-53
2020/12/11 06:00:27;;;;;;;26.87;19.93;;;2.40;99.90;;;;;;5094059;28;20213;-52
2020/12/11 06:02:54;;;;;;;28.47;19.90;;;2.50;99.90;;;;;;5094092;28;20406;-55
2020/12/11 06:05:22;;;;;;;27.63;19.10;;;2.50;99.90;;;;;;5093960;28;20756;-55
2020/12/11 06:07:50;;;;;;;30.37;20.87;;;2.50;99.90;;;;;;5093838;28;20435;-57
2020/12/11 06:10:20;;;;;;;24.13;17.87;;;2.50;99.90;;;;;;5093799;28;20455;-58
2020/12/11 06:12:45;;;;;;;27.10;21.23;;;2.50;99.90;;;;;;5094216;28;20487;-52
2020/12/11 06:15:18;;;;;;;26.50;18.37;;;2.60;99.90;;;;;;5093748;28;20929;-56
2020/12/11 06:18:23;;;;;;;27.57;20.67;;;2.60;99.90;;;;;;5093551;28;20196;-57
2020/12/11 06:20:53;;;;;;;24.97;18.70;;;2.60;99.90;;;;;;5092381;28;20445;-56
2020/12/11 06:23:19;;;;;;;22.67;16.93;;;2.50;99.90;;;;;;5086746;28;20507;-53
2020/12/11 06:25:50;;;;;;;26.17;18.60;;;2.50;99.90;;;;;;5073635;28;20917;-52
2020/12/11 06:28:36;;;;;;;28.10;20.47;;;2.60;99.90;;;;;;5072970;28;20197;-55
2020/12/11 06:31:13;;;;;;;26.40;18.60;;;2.60;99.90;;;;;;5072904;28;20400;-57
2020/12/11 06:33:41;;;;;;;27.67;20.50;;;2.60;99.90;;;;;;5073422;28;20407;-55
2020/12/11 06:36:07;;;;;;;26.73;20.03;;;2.50;99.90;;;;;;5073371;28;20400;-57
2020/12/11 06:38:53;;;;;;;26.90;19.50;;;2.30;99.90;;;;;;5073203;28;20400;-57
2020/12/11 06:41:28;;;;;;;23.27;18.73;;;2.20;99.90;;;;;;5073225;28;20379;-54
2020/12/11 06:43:57;;;;;;;23.70;17.53;;;1.80;99.90;;;;;;5072548;28;20417;-56
2020/12/11 06:46:25;;;;;;;22.07;17.83;;;1.80;99.90;;;;;;5074989;28;20441;-57
2020/12/11 06:49:06;;;;;;;22.70;16.90;;;1.80;99.90;;;;;;5095527;28;20447;-55
2020/12/11 06:51:33;;;;;;;25.20;20.20;;;1.90;99.90;;;;;;5096156;28;20429;-58
2020/12/11 06:53:59;;;;;;;25.43;18.20;;;2.00;99.90;;;;;;5105528;28;20413;-58
2020/12/11 06:56:39;;;;;;;23.97;17.60;;;2.20;99.90;;;;;;5118013;28;20900;-58
2020/12/11 06:59:24;;;;;;;20.87;17.00;;;2.20;99.90;;;;;;5116724;28;20731;-58
2020/12/11 07:02:15;;;;;;;24.20;18.10;;;2.10;99.90;;;;;;5116425;28;20455;-54
2020/12/11 07:04:45;;;;;;;24.50;17.60;;;2.30;99.90;;;;;;5117481;28;20454;-55
2020/12/11 07:07:11;;;;;;;19.90;15.60;;;2.40;99.90;;;;;;5117196;28;20428;-55
2020/12/11 07:09:41;;;;;;;22.97;16.87;;;2.60;99.90;;;;;;5116992;28;20447;-56
2020/12/11 07:12:07;;;;;;;21.77;17.40;;;2.80;99.90;;;;;;5117084;27;20796;-55
2020/12/11 07:14:33;;;;;;;25.37;18.07;;;2.80;99.90;;;;;;5117356;28;20867;-56
2020/12/11 07:17:00;;;;;;;20.37;17.07;;;2.80;99.90;;;;;;5117402;28;20417;-56
2020/12/11 07:19:26;;;;;;;23.03;17.17;;;2.80;99.90;;;;;;5117123;28;20498;-56
2020/12/11 07:21:53;;;;;;;21.10;17.00;;;2.70;99.90;;;;;;5117074;28;20434;-56
2020/12/11 07:24:20;;;;;;;24.73;18.17;;;2.50;99.90;;;;;;5083529;28;20899;-55
2020/12/11 07:26:46;;;;;;;24.40;17.67;;;2.50;99.90;;;;;;5075986;28;20951;-57
2020/12/11 07:29:16;;;;;;;22.50;16.27;;;2.60;99.90;;;;;;5076023;28;20529;-54
2020/12/11 07:31:46;;;;;;;23.47;16.70;;;2.70;99.90;;;;;;5076412;28;20395;-58
2020/12/11 07:34:19;;;;;;;25.80;18.90;;;2.80;99.90;;;;;;5076641;28;20420;-54
2020/12/11 07:36:55;;;;;;;22.40;16.70;;;2.80;99.90;;;;;;5077287;28;20767;-57
2020/12/11 07:39:30;;;;;;;22.83;17.30;;;2.70;99.90;;;;;;5075908;28;20395;-58
2020/12/11 07:41:59;;;;;;;22.10;17.43;;;2.70;99.90;;;;;;5076184;28;20424;-57
2020/12/11 07:44:28;;;;;;;22.03;17.47;;;2.60;99.90;;;;;;5076101;28;20408;-57
2020/12/11 07:46:55;;;;;;;24.33;17.30;;;2.70;99.90;;;;;;5082353;28;20944;-57
2020/12/11 07:49:21;;;;;;;22.43;18.10;;;2.80;99.90;;;;;;5096330;28;20466;-55
2020/12/11 07:51:50;;;;;;;22.70;17.40;;;2.80;99.90;;;;;;5096314;28;20408;-54
2020/12/11 07:54:17;;;;;;;22.83;17.37;;;2.80;99.90;;;;;;5080048;28;20414;-58
2020/12/11 07:56:43;;;;;;;20.77;17.23;;;2.80;99.90;;;;;;5076158;28;20447;-56
2020/12/11 07:59:14;;;;;;;26.67;18.60;;;2.90;99.90;;;;;;5074579;28;20402;-55
2020/12/11 08:01:46;;;;;;;25.00;18.87;;;2.90;99.90;;;;;;5076031;28;20929;-57
2020/12/11 08:04:12;;;;;;;21.97;16.73;;;2.90;99.90;;;;;;5075998;28;20851;-56
2020/12/11 08:06:37;;;;;;;25.40;17.37;;;3.00;99.90;;;;;;5074286;28;20474;-57
2020/12/11 08:09:15;;;;;;;22.40;17.00;;;3.00;99.90;;;;;;5075661;28;20200;-57
2020/12/11 08:11:44;;;;;;;21.90;16.93;;;3.20;99.90;;;;;;5075801;28;20178;-56
2020/12/11 08:14:10;;;;;;;21.70;17.37;;;3.30;99.90;;;;;;5074773;28;20404;-57
2020/12/11 08:16:36;;;;;;;20.47;15.80;;;3.40;99.90;;;;;;5075332;28;20431;-58
2020/12/11 08:19:08;;;;;;;22.03;16.43;;;3.50;99.90;;;;;;5075545;28;20429;-57
2020/12/11 08:21:34;;;;;;;20.83;16.80;;;3.60;99.90;;;;;;5075069;28;20172;-56
2020/12/11 08:24:00;;;;;;;21.03;17.17;;;3.40;99.90;;;;;;5074786;28;20419;-56
2020/12/11 08:26:39;;;;;;;22.13;18.13;;;3.40;99.90;;;;;;5075129;28;20191;-55
2020/12/11 08:29:06;;;;;;;22.90;17.60;;;3.40;99.90;;;;;;5074676;28;20861;-55
2020/12/11 08:31:42;;;;;;;24.13;18.10;;;3.40;99.90;;;;;;5075240;28;20432;-56
2020/12/11 08:34:11;;;;;;;22.80;16.67;;;3.50;99.90;;;;;;5074928;28;20811;-56
2020/12/11 08:36:46;;;;;;;25.10;19.17;;;3.40;99.90;;;;;;5074718;28;20515;-55
2020/12/11 08:39:19;;;;;;;26.57;18.33;;;3.40;99.90;;;;;;5074777;28;20396;-59
2020/12/11 08:42:08;;;;;;;24.17;17.03;;;3.50;99.90;;;;;;5074879;28;20408;-56
2020/12/11 08:49:42;;;;;;;21.50;16.40;;;3.60;99.90;;;;;;5075081;28;20557;-55
2020/12/11 08:52:09;;;;;;;23.30;18.00;;;3.60;99.90;;;;;;5090346;28;20904;-56
2020/12/11 08:54:35;;;;;;;21.83;17.77;;;3.70;99.90;;;;;;5076739;28;20511;-53
2020/12/11 08:57:01;;;;;;;23.17;17.30;;;3.80;99.90;;;;;;5074555;28;20424;-55
2020/12/11 08:59:26;;;;;;;22.23;17.23;;;3.90;99.90;;;;;;5076069;28;20416;-54
2020/12/11 09:01:52;;;;;;;20.57;15.57;;;3.90;99.90;;;;;;5076044;28;20182;-54
2020/12/11 09:04:17;;;;;;;24.17;17.00;;;4.10;99.90;;;;;;5091628;28;20264;-55
2020/12/11 09:06:44;;;;;;;20.07;15.33;;;4.30;99.90;;;;;;5096789;28;20207;-53
2020/12/11 09:09:10;;;;;;;21.60;18.20;;;4.50;99.90;;;;;;5095976;28;20221;-55
2020/12/11 09:11:35;;;;;;;22.50;18.40;;;4.70;99.90;;;;;;5095666;28;20403;-50
2020/12/11 09:14:01;;;;;;;25.23;18.47;;;4.50;99.90;;;;;;5095839;28;20165;-53
2020/12/11 09:16:27;;;;;;;22.40;16.07;;;4.50;99.90;;;;;;5096446;28;20190;-51
2020/12/11 09:18:52;;;;;;;22.30;17.60;;;4.50;99.90;;;;;;5096285;28;20165;-51
2020/12/11 09:21:18;;;;;;;22.70;16.50;;;4.30;99.90;;;;;;5096002;28;20157;-53
2020/12/11 09:23:43;;;;;;;17.80;15.20;;;4.30;99.90;;;;;;5085369;28;20170;-54
2020/12/11 09:26:09;;;;;;;19.83;15.50;;;4.50;99.90;;;;;;5075571;28;20206;-52
2020/12/11 09:28:35;;;;;;;20.00;15.20;;;4.70;99.90;;;;;;5075139;28;20162;-53
2020/12/11 09:31:01;;;;;;;19.87;16.30;;;4.80;99.90;;;;;;5075206;28;20911;-52
2020/12/11 09:33:28;;;;;;;20.77;16.33;;;4.90;99.90;;;;;;5075339;28;20533;-53
2020/12/11 09:35:57;;;;;;;23.27;16.53;;;4.80;99.90;;;;;;5075476;28;20537;-53
2020/12/11 09:38:22;;;;;;;19.93;14.83;;;4.80;99.90;;;;;;5073757;28;20425;-52
2020/12/11 09:40:52;;;;;;;17.63;14.03;;;5.00;99.90;;;;;;5075338;28;20493;-52
2020/12/11 09:51:29;;;;;;;18.63;15.00;;;5.00;99.90;;;;;;5075270;28;20452;-51
2020/12/11 09:56:38;;;;;;;18.23;13.50;;;5.20;99.90;;;;;;5075859;28;20469;-52
2020/12/11 09:59:17;;;;;;;20.70;14.70;;;5.40;99.90;;;;;;5074864;28;20428;-51
2020/12/11 10:01:57;;;;;;;17.23;12.83;;;5.60;99.90;;;;;;5075895;28;20158;-52
2020/12/11 10:04:22;;;;;;;15.40;12.47;;;5.50;99.90;;;;;;5075071;28;20470;-53
2020/12/11 10:06:48;;;;;;;15.67;12.83;;;5.60;99.90;;;;;;5075662;28;20432;-53
2020/12/11 10:09:13;;;;;;;16.57;13.83;;;5.80;99.90;;;;;;5074834;28;20229;-52
2020/12/11 10:11:39;;;;;;;17.83;14.27;;;5.90;99.90;;;;;;5074957;28;20174;-53
2020/12/11 10:16:51;;;;;;;17.07;14.53;;;6.10;99.90;;;;;;5075354;28;20457;-52
2020/12/11 10:19:17;;;;;;;16.17;13.33;;;6.00;99.90;;;;;;5073203;28;20436;-51
2020/12/11 10:21:49;;;;;;;16.63;13.57;;;6.00;99.90;;;;;;5074783;28;20939;-51
2020/12/11 10:24:16;;;;;;;14.70;12.83;;;6.30;99.90;;;;;;5078866;28;20792;-51
2020/12/11 10:26:42;;;;;;;17.40;14.30;;;6.50;99.90;;;;;;5079134;28;20502;-54
2020/12/11 10:29:08;;;;;;;19.10;14.00;;;6.30;99.90;;;;;;5080021;28;20456;-52
2020/12/11 10:31:34;;;;;;;16.90;15.10;;;;;;;;;;5080414;28;20417;-54
2020/12/11 10:34:00;;;;;;;18.37;12.90;;;6.40;99.90;;;;;;5081448;28;20215;-54
2020/12/11 10:36:30;;;;;;;17.07;13.77;;;6.30;99.90;;;;;;5081574;28;20431;-54
2020/12/11 10:38:55;;;;;;;18.37;13.53;;;6.30;99.90;;;;;;5079704;28;20491;-52
2020/12/11 10:41:22;;;;;;;14.43;11.30;;;6.00;99.90;;;;;;5099474;28;20496;-51
2020/12/11 10:43:48;;;;;;;17.00;13.07;;;5.90;99.90;;;;;;5097774;28;20200;-52
2020/12/11 10:46:14;;;;;;;15.17;12.10;;;6.10;99.90;;;;;;5098569;28;20446;-51
2020/12/11 10:48:39;;;;;;;14.20;12.33;;;6.00;99.90;;;;;;5098907;28;20835;-53
2020/12/11 10:51:05;;;;;;;15.23;12.23;;;5.70;99.90;;;;;;5118262;28;20494;-51
2020/12/11 10:53:33;;;;;;;13.77;11.57;;;5.80;99.90;;;;;;5102003;28;20517;-55
2020/12/11 10:55:59;;;;;;;16.13;12.07;;;6.00;99.90;;;;;;5078677;28;20181;-52
2020/12/11 10:58:24;;;;;;;16.73;11.70;;;6.20;99.90;;;;;;5078710;28;20487;-53
2020/12/11 11:00:50;;;;;;;20.10;12.63;;;6.30;99.90;;;;;;5078231;28;20182;-53
2020/12/11 11:03:15;;;;;;;23.47;13.33;;;6.40;99.90;;;;;;5078445;28;20177;-53
2020/12/11 11:05:43;;;;;;;16.97;12.80;;;6.30;99.90;;;;;;5078457;28;20196;-53
2020/12/11 11:08:09;;;;;;;18.47;13.13;;;6.30;99.90;;;;;;5078038;28;20185;-56
2020/12/11 11:10:41;;;;;;;16.43;12.40;;;6.30;99.90;;;;;;5078243;28;20446;-52
2020/12/11 11:13:15;;;;;;;14.90;11.90;;;6.40;99.90;;;;;;5077252;28;20162;-53
2020/12/11 11:15:47;;;;;;;15.10;12.37;;;6.30;99.90;;;;;;5079312;28;20384;-52
2020/12/11 11:23:51;;;;;;;15.20;10.70;;;6.10;99.90;;;;;;5078641;28;20380;-54
2020/12/11 11:28:50;;;;;;;14.47;11.83;;;6.30;99.90;;;;;;5076907;28;21030;-51
2020/12/11 11:31:16;;;;;;;14.57;12.07;;;6.20;99.90;;;;;;5077243;28;20407;-52
2020/12/11 11:33:42;;;;;;;17.93;13.83;;;6.30;99.90;;;;;;5077359;28;20162;-52
2020/12/11 11:36:10;;;;;;;19.20;14.43;;;6.40;99.90;;;;;;5078000;28;20158;-50
2020/12/11 11:38:35;;;;;;;20.17;13.20;;;6.40;99.90;;;;;;5083324;28;20412;-52
2020/12/11 11:41:01;;;;;;;17.60;13.83;;;6.60;99.90;;;;;;5094710;28;20930;-52
2020/12/11 11:43:47;;;;;;;17.00;12.30;;;6.90;99.90;;;;;;5097540;28;20651;-55
2020/12/11 11:46:13;;;;;;;14.50;12.30;;;6.90;99.90;;;;;;5098435;28;20574;-52
2020/12/11 11:48:41;;;;;;;17.70;12.50;;;7.20;99.90;;;;;;5098108;28;20431;-57
2020/12/11 11:51:14;;;;;;;17.30;13.53;;;7.40;99.90;;;;;;5098474;28;20641;-53
2020/12/11 11:53:40;;;;;;;15.87;11.47;;;7.40;99.90;;;;;;5098404;28;20467;-54
2020/12/11 11:56:05;;;;;;;14.50;11.53;;;7.60;99.90;;;;;;5098433;28;20427;-52
2020/12/11 11:58:31;;;;;;;15.00;12.53;;;7.70;99.90;;;;;;5097219;28;20256;-53
2020/12/11 12:00:57;;;;;;;14.10;11.97;;;7.40;99.90;;;;;;5095637;28;20234;-52
2020/12/11 12:03:24;;;;;;;15.10;12.40;;;7.30;99.90;;;;;;5098082;28;20166;-54
2020/12/11 12:05:50;;;;;;;13.40;12.00;;;7.50;99.90;;;;;;5098310;28;20566;-52
2020/12/11 12:08:20;;;;;;;14.30;11.97;;;7.60;99.90;;;;;;5098057;28;20561;-53
2020/12/11 12:10:46;;;;;;;18.07;13.33;;;7.60;99.90;;;;;;5098085;28;20982;-52
2020/12/11 12:13:11;;;;;;;17.23;13.33;;;7.90;99.90;;;;;;5097569;28;20407;-54
2020/12/11 12:15:37;;;;;;;14.20;12.40;;;7.90;99.90;;;;;;5098089;28;20931;-54
2020/12/11 12:18:06;;;;;;;13.87;12.37;;;8.10;99.90;;;;;;5099787;28;20217;-55
2020/12/11 12:29:06;;;;;;;21.07;13.27;;;8.70;99.90;;;;;;5097960;28;20406;-50
2020/12/11 12:31:38;;;;;;;16.47;12.07;;;8.60;99.90;;;;;;5074846;28;20414;-55
2020/12/11 12:34:38;;;;;;;16.47;12.17;;;8.20;99.90;;;;;;5100619;28;20416;-55
2020/12/11 12:42:40;;;;;;;26.93;15.10;;;8.20;99.90;;;;;;5102281;28;20412;-54
2020/12/11 12:45:07;;;;;;;16.00;13.33;;;7.60;99.90;;;;;;5101234;28;20408;-54
2020/12/11 12:47:32;;;;;;;18.10;15.40;;;7.30;99.90;;;;;;5097568;28;20480;-54
2020/12/11 12:49:59;;;;;;;26.90;15.13;;;7.20;99.90;;;;;;5096510;28;20864;-51
2020/12/11 12:52:25;;;;;;;18.27;12.90;;;7.00;99.90;;;;;;5096844;28;20173;-51
2020/12/11 12:54:51;;;;;;;23.70;14.93;;;7.00;99.90;;;;;;5076319;28;20791;-51
2020/12/11 12:57:21;;;;;;;15.60;13.43;;;7.20;99.90;;;;;;5076213;28;20194;-52
2020/12/11 13:02:36;;;;;;;16.40;13.23;;;7.40;99.90;;;;;;5096404;28;20415;-53
2020/12/11 13:05:10;;;;;;;16.03;12.90;;;7.30;99.90;;;;;;5096709;28;20158;-56
2020/12/11 13:07:36;;;;;;;25.00;15.07;;;7.00;99.90;;;;;;5096365;28;20411;-52
2020/12/11 13:10:06;;;;;;;18.97;15.10;;;7.00;99.90;;;;;;5095535;28;20454;-54
2020/12/11 13:12:32;;;;;;;18.00;13.83;;;6.60;99.90;;;;;;5095592;28;20415;-53
2020/12/11 13:14:58;;;;;;;17.70;13.50;;;6.50;99.90;;;;;;5095704;28;20404;-52
2020/12/11 13:17:23;;;;;;;18.03;13.63;;;6.60;99.90;;;;;;5095849;28;20438;-52
2020/12/11 13:19:49;;;;;;;20.50;15.17;;;6.40;99.90;;;;;;5095579;28;20188;-55
2020/12/11 13:27:27;;;;;;;16.43;14.20;;;6.30;99.90;;;;;;5075347;28;20192;-52
2020/12/11 13:29:53;;;;;;;22.20;15.20;;;6.30;99.90;;;;;;5075348;28;20497;-54
2020/12/11 13:32:19;;;;;;;17.90;14.70;;;6.20;99.90;;;;;;5080275;28;20403;-52